createdAt,value
2022-08-25T00:02:01.979Z,74.72
2022-08-25T00:04:31.219Z,73.91
2022-08-25T00:07:04.878Z,74.37
2022-08-25T00:09:34.240Z,74.66
2022-08-25T00:12:02.469Z,74.28
2022-08-25T00:14:37.322Z,73.97
2022-08-25T00:17:06.208Z,74.04
2022-08-25T00:19:36.449Z,73.76
2022-08-25T00:22:08.071Z,74.25
2022-08-25T00:24:35.335Z,73.28
2022-08-25T00:27:02.690Z,72.78
2022-08-25T00:29:32.067Z,72.98
2022-08-25T00:32:01.059Z,73.35
2022-08-25T00:34:36.570Z,73.37
2022-08-25T00:37:07.324Z,73.54
2022-08-25T00:39:35.443Z,74.48
2022-08-25T00:42:07.471Z,74.40
2022-08-25T00:44:43.825Z,74.21
2022-08-25T00:47:10.996Z,73.94
2022-08-25T00:49:48.378Z,74.03
2022-08-25T00:52:21.403Z,74.18
2022-08-25T00:54:57.123Z,74.42
2022-08-25T00:57:34.335Z,75.90
2022-08-25T01:00:20.250Z,75.84
2022-08-25T01:02:47.535Z,75.12
2022-08-25T01:05:14.748Z,74.63
2022-08-25T01:07:44.636Z,74.84
2022-08-25T01:10:13.656Z,76.46
2022-08-25T01:12:41.377Z,76.19
2022-08-25T01:15:13.270Z,76.44
2022-08-25T01:17:53.440Z,76.03
2022-08-25T01:20:29.503Z,76.89
2022-08-25T01:22:57.860Z,76.90
2022-08-25T01:25:37.290Z,77.22
2022-08-25T01:28:06.327Z,77.58
2022-08-25T01:30:33.719Z,77.43
2022-08-25T01:33:08.114Z,77.63
2022-08-25T01:35:35.953Z,78.08
2022-08-25T01:38:05.839Z,78.24
2022-08-25T01:40:34.182Z,78.91
2022-08-25T01:43:15.058Z,79.40
2022-08-25T01:45:46.705Z,79.50
2022-08-25T01:48:16.469Z,79.29
2022-08-25T01:50:44.213Z,78.72
2022-08-25T01:53:27.966Z,79.68
2022-08-25T01:56:06.130Z,80.88
2022-08-25T01:58:40.899Z,81.77
2022-08-25T02:01:18.390Z,81.96
2022-08-25T02:03:49.513Z,82.21
2022-08-25T02:06:29.789Z,81.80
2022-08-25T02:09:01.180Z,82.05
2022-08-25T02:11:29.192Z,83.04
2022-08-25T02:13:56.405Z,83.13
2022-08-25T02:16:31.600Z,84.37
2022-08-25T02:19:00.031Z,85.01
2022-08-25T02:21:28.259Z,85.31
2022-08-25T02:23:55.530Z,84.36
2022-08-25T02:26:22.915Z,84.02
2022-08-25T02:28:52.320Z,85.29
2022-08-25T02:31:23.912Z,85.20
2022-08-25T02:33:52.067Z,84.01
2022-08-25T02:36:20.026Z,85.36
2022-08-25T02:38:47.389Z,84.69
2022-08-25T02:41:21.593Z,85.57
2022-08-25T02:43:52.365Z,84.64
2022-08-25T02:46:21.879Z,84.97
2022-08-25T02:48:51.256Z,84.96
2022-08-25T02:51:19.064Z,85.06
2022-08-25T02:53:48.040Z,85.75
2022-08-25T02:56:18.602Z,86.04
2022-08-25T02:58:47.527Z,85.88
2022-08-25T03:01:15.784Z,86.15
2022-08-25T03:03:45.697Z,85.58
2022-08-25T03:06:16.399Z,86.09
2022-08-25T03:08:44.307Z,86.42
2022-08-25T03:11:12.093Z,86.46
2022-08-25T03:13:40.216Z,85.61
2022-08-25T03:16:11.387Z,85.49
2022-08-25T03:18:42.194Z,85.33
2022-08-25T03:21:11.605Z,85.45
2022-08-25T03:23:40.876Z,85.21
2022-08-25T03:26:27.814Z,85.51
2022-08-25T03:28:55.525Z,85.37
2022-08-25T03:31:25.067Z,85.15
2022-08-25T03:33:52.177Z,85.74
2022-08-25T03:36:19.327Z,84.28
2022-08-25T03:38:46.367Z,84.12
2022-08-25T03:41:21.453Z,85.10
2022-08-25T03:43:49.614Z,86.07
2022-08-25T03:46:35.604Z,86.12
2022-08-25T03:49:06.447Z,86.14
2022-08-25T03:51:43.186Z,86.55
2022-08-25T03:54:11.840Z,86.85
2022-08-25T03:56:39.662Z,86.88
2022-08-25T03:59:09.244Z,88.36
2022-08-25T04:01:38.783Z,89.67
2022-08-25T04:04:08.580Z,90.12
2022-08-25T04:06:35.772Z,91.47
2022-08-25T04:09:02.733Z,91.55
2022-08-25T04:11:29.735Z,91.15
2022-08-25T04:13:59.127Z,89.71
2022-08-25T04:16:31.185Z,89.40
2022-08-25T04:19:02.228Z,90.86
2022-08-25T04:21:30.382Z,90.82
2022-08-25T04:23:57.691Z,92.35
2022-08-25T04:26:42.443Z,91.88
2022-08-25T04:29:12.595Z,92.17
2022-08-25T04:31:46.702Z,91.49
2022-08-25T04:34:30.635Z,91.20
2022-08-25T04:37:03.915Z,91.96
2022-08-25T04:39:31.082Z,91.20
2022-08-25T04:41:58.111Z,91.69
2022-08-25T04:44:25.576Z,91.53
2022-08-25T04:46:52.575Z,92.48
2022-08-25T04:49:19.770Z,92.52
2022-08-25T04:51:47.051Z,92.63
2022-08-25T04:54:21.575Z,92.15
2022-08-25T04:56:50.400Z,93.23
2022-08-25T04:59:21.851Z,94.61
2022-08-25T05:01:52.153Z,93.60
2022-08-25T05:04:28.042Z,92.49
2022-08-25T05:06:56.831Z,92.48
2022-08-25T05:09:25.162Z,92.63
2022-08-25T05:11:53.554Z,91.81
2022-08-25T05:14:25.664Z,92.08
2022-08-25T05:16:55.183Z,92.56
2022-08-25T05:19:24.174Z,92.03
2022-08-25T05:21:51.618Z,90.83
2022-08-25T05:24:19.281Z,90.24
2022-08-25T05:26:46.324Z,89.88
2022-08-25T05:29:14.363Z,88.32
2022-08-25T05:31:47.049Z,87.85
2022-08-25T05:34:18.816Z,88.20
2022-08-25T05:36:46.527Z,87.62
2022-08-25T05:39:13.616Z,87.51
2022-08-25T05:41:40.959Z,87.27
2022-08-25T05:44:08.167Z,86.47
2022-08-25T05:46:35.128Z,85.71
2022-08-25T05:49:02.149Z,85.63
2022-08-25T05:51:29.435Z,84.93
2022-08-25T05:53:56.399Z,84.01
2022-08-25T05:56:23.407Z,83.44
2022-08-25T05:58:50.436Z,83.12
2022-08-25T06:01:47.977Z,82.78
2022-08-25T06:04:18.007Z,83.35
2022-08-25T06:06:44.982Z,82.66
2022-08-25T06:09:12.450Z,82.32
2022-08-25T06:11:41.063Z,81.97
2022-08-25T06:14:09.874Z,81.63
2022-08-25T06:16:38.926Z,81.43
2022-08-25T06:19:08.926Z,81.41
2022-08-25T06:21:37.367Z,81.26
2022-08-25T06:24:05.561Z,80.25
2022-08-25T06:26:32.811Z,80.89
2022-08-25T06:28:59.803Z,80.30
2022-08-25T06:31:26.902Z,79.85
2022-08-25T06:33:54.019Z,79.86
2022-08-25T06:36:21.146Z,79.70
2022-08-25T06:38:48.695Z,79.48
2022-08-25T06:41:16.727Z,79.75
2022-08-25T06:43:48.913Z,80.20
2022-08-25T06:46:22.945Z,78.90
2022-08-25T06:49:04.897Z,78.45
2022-08-25T06:51:32.191Z,78.17
2022-08-25T06:54:00.320Z,77.49
2022-08-25T06:56:27.313Z,77.73
2022-08-25T06:58:54.346Z,76.63
2022-08-25T07:01:26.826Z,76.70
2022-08-25T07:03:59.887Z,76.35
2022-08-25T07:06:31.953Z,77.02
2022-08-25T07:08:59.736Z,76.67
2022-08-25T07:11:27.542Z,77.17
2022-08-25T07:13:54.760Z,77.77
2022-08-25T07:16:22.287Z,76.63
2022-08-25T07:18:50.753Z,75.98
2022-08-25T07:21:20.627Z,75.50
2022-08-25T07:23:50.143Z,74.47
2022-08-25T07:26:39.586Z,74.18
2022-08-25T07:29:18.219Z,73.33
2022-08-25T07:31:47.856Z,74.71
2022-08-25T07:34:33.666Z,74.07
2022-08-25T07:37:05.619Z,74.53
2022-08-25T07:39:34.393Z,73.94
2022-08-25T07:42:01.839Z,72.60
2022-08-25T07:44:29.199Z,71.71
2022-08-25T07:46:56.998Z,73.54
2022-08-25T07:49:26.647Z,73.80
2022-08-25T07:52:06.697Z,73.10
2022-08-25T07:54:37.824Z,74.21
2022-08-25T07:57:07.823Z,73.05
2022-08-25T07:59:39.752Z,72.95
2022-08-25T08:02:17.824Z,72.72
2022-08-25T08:04:48.870Z,71.19
2022-08-25T08:07:33.610Z,70.80
2022-08-25T08:13:01.780Z,71.18
2022-08-25T08:15:30.211Z,71.05
2022-08-25T08:17:59.183Z,69.77
2022-08-25T08:20:27.335Z,69.16
2022-08-25T08:22:54.547Z,69.17
2022-08-25T08:25:26.573Z,69.89
2022-08-25T08:27:55.459Z,70.71
2022-08-25T08:30:26.169Z,69.85
2022-08-25T08:33:11.959Z,68.92
2022-08-25T08:35:43.128Z,67.42
2022-08-25T08:38:17.264Z,67.53
2022-08-25T08:42:09.798Z,66.17
2022-08-25T08:44:44.785Z,67.21
2022-08-25T08:47:52.580Z,65.71
2022-08-25T08:50:33.884Z,65.28
2022-08-25T08:53:19.801Z,65.55
2022-08-25T08:55:54.403Z,66.16
2022-08-25T08:58:44.549Z,64.17
2022-08-25T09:01:19.552Z,65.52
2022-08-25T09:03:56.940Z,64.59
2022-08-25T09:06:37.736Z,65.45
2022-08-25T09:09:07.167Z,63.04
2022-08-25T09:12:09.414Z,63.32
2022-08-25T09:15:00.826Z,64.49
2022-08-25T09:17:42.886Z,61.44
2022-08-25T09:20:54.946Z,61.42
2022-08-25T09:23:51.904Z,61.16
2022-08-25T09:27:17.918Z,62.20
2022-08-25T09:30:03.143Z,61.11
2022-08-25T09:32:48.619Z,58.74
2022-08-25T09:35:29.859Z,58.72
2022-08-25T09:38:09.383Z,61.32
2022-08-25T09:40:41.054Z,60.50
2022-08-25T09:43:28.909Z,59.22
2022-08-25T09:46:10.787Z,59.68
2022-08-25T09:48:56.013Z,58.28
2022-08-25T09:51:42.272Z,56.69
2022-08-25T09:54:12.394Z,58.45
2022-08-25T09:57:09.288Z,55.32
2022-08-25T09:59:37.675Z,56.06
2022-08-25T10:02:28.619Z,55.64
2022-08-25T10:04:56.496Z,56.15
2022-08-25T10:07:34.733Z,56.80
2022-08-25T10:10:17.632Z,56.21
2022-08-25T10:12:51.201Z,54.73
2022-08-25T10:15:37.293Z,54.55
2022-08-25T10:18:28.932Z,54.89
2022-08-25T10:21:11.718Z,53.96
2022-08-25T10:23:53.420Z,53.04
2022-08-25T10:26:53.148Z,52.03
2022-08-25T10:30:00.819Z,53.57
2022-08-25T10:32:47.911Z,54.06
2022-08-25T10:35:26.582Z,54.51
2022-08-25T10:38:07.627Z,53.27
2022-08-25T10:41:00.282Z,53.18
2022-08-25T10:43:32.983Z,52.16
2022-08-25T10:46:23.947Z,53.71
2022-08-25T10:49:19.799Z,52.51
2022-08-25T10:51:56.562Z,53.86
2022-08-25T10:54:26.589Z,54.45
2022-08-25T10:57:23.995Z,53.80
2022-08-25T10:59:58.707Z,54.12
2022-08-25T11:03:06.575Z,53.70
2022-08-25T11:05:59.613Z,53.24
2022-08-25T11:08:33.559Z,51.71
2022-08-25T11:11:21.673Z,52.54
2022-08-25T11:13:59.045Z,50.61
2022-08-25T11:17:05.250Z,51.35
2022-08-25T11:19:36.322Z,51.73
2022-08-25T11:22:27.271Z,50.57
2022-08-25T11:25:26.214Z,49.43
2022-08-25T11:28:14.604Z,52.14
2022-08-25T11:30:42.361Z,51.30
2022-08-25T11:33:20.173Z,50.40
2022-08-25T11:35:51.392Z,51.19
2022-08-25T11:38:18.219Z,50.68
2022-08-25T11:41:25.315Z,50.22
2022-08-25T11:44:45.529Z,48.84
2022-08-25T11:47:43.591Z,47.81
2022-08-25T11:50:37.347Z,47.87
2022-08-25T11:53:32.793Z,47.15
2022-08-25T11:56:30.221Z,48.40
2022-08-25T11:59:04.055Z,49.61
2022-08-25T12:02:00.415Z,49.31
2022-08-25T12:04:45.036Z,49.75
2022-08-25T12:07:27.613Z,49.31
2022-08-25T12:09:54.777Z,49.76
2022-08-25T12:12:41.392Z,50.11
2022-08-25T12:15:30.146Z,48.93
2022-08-25T12:18:28.221Z,48.82
2022-08-25T12:20:58.881Z,49.79
2022-08-25T12:23:46.426Z,50.04
2022-08-25T12:26:59.310Z,47.61
2022-08-25T12:29:49.341Z,48.37
2022-08-25T12:32:45.635Z,48.16
2022-08-25T12:35:22.546Z,49.08
2022-08-25T12:38:00.406Z,48.38
2022-08-25T12:40:37.632Z,49.58
2022-08-25T12:43:13.905Z,48.17
2022-08-25T12:45:49.375Z,48.02
2022-08-25T12:48:28.770Z,47.61
2022-08-25T12:51:06.627Z,46.80
2022-08-25T12:53:42.471Z,45.75
2022-08-25T12:56:32.691Z,46.99
2022-08-25T12:59:15.311Z,48.19
2022-08-25T13:02:30.105Z,48.59
2022-08-25T13:05:24.948Z,47.50
2022-08-25T13:08:15.889Z,48.97
2022-08-25T13:10:58.307Z,46.79
2022-08-25T13:13:52.130Z,46.60
2022-08-25T13:16:30.149Z,47.10
2022-08-25T13:19:01.519Z,45.68
2022-08-25T13:21:42.614Z,46.00
2022-08-25T13:24:30.534Z,47.20
2022-08-25T13:27:22.735Z,46.23
2022-08-25T13:29:58.070Z,46.87
2022-08-25T13:32:35.316Z,47.07
2022-08-25T13:35:23.960Z,45.04
2022-08-25T13:37:54.107Z,45.53
2022-08-25T13:40:29.166Z,46.13
2022-08-25T13:43:03.235Z,46.32
2022-08-25T13:45:41.100Z,46.10
2022-08-25T13:48:20.904Z,46.18
2022-08-25T13:50:52.193Z,46.53
2022-08-25T13:53:26.799Z,46.65
2022-08-25T13:56:03.359Z,46.96
2022-08-25T13:58:38.911Z,47.50
2022-08-25T14:01:49.210Z,46.90
2022-08-25T14:04:51.820Z,46.58
2022-08-25T14:07:22.936Z,45.93
2022-08-25T14:10:04.211Z,45.93
2022-08-25T14:12:46.326Z,47.00
2022-08-25T14:15:24.544Z,47.23
2022-08-25T14:18:27.162Z,47.95
2022-08-25T14:20:56.598Z,45.43
2022-08-25T14:23:29.645Z,46.49
2022-08-25T14:25:58.039Z,45.02
2022-08-25T14:28:30.339Z,46.50
2022-08-25T14:31:28.001Z,48.01
2022-08-25T14:34:04.131Z,46.75
2022-08-25T14:36:35.206Z,46.33
2022-08-25T14:39:12.503Z,46.97
2022-08-25T14:41:42.703Z,47.61
2022-08-25T14:44:11.133Z,45.92
2022-08-25T14:46:45.047Z,45.30
2022-08-25T14:49:18.936Z,46.03
2022-08-25T14:51:52.216Z,45.75
2022-08-25T14:54:24.615Z,45.11
2022-08-25T14:56:52.943Z,45.30
2022-08-25T14:59:20.016Z,45.29
2022-08-25T15:01:47.148Z,45.08
2022-08-25T15:04:27.500Z,45.67
2022-08-25T15:07:02.817Z,43.88
2022-08-25T15:09:33.604Z,43.83
2022-08-25T15:12:01.065Z,43.92
2022-08-25T15:14:28.802Z,43.31
2022-08-25T15:17:01.507Z,45.16
2022-08-25T15:19:29.475Z,45.79
2022-08-25T15:21:58.050Z,46.41
2022-08-25T15:24:28.092Z,46.68
2022-08-25T15:27:02.481Z,46.49
2022-08-25T15:29:36.288Z,46.32
2022-08-25T15:32:07.109Z,46.25
2022-08-25T15:34:35.988Z,44.63
2022-08-25T15:37:10.992Z,45.74
2022-08-25T15:39:39.923Z,45.42
2022-08-25T15:42:12.231Z,45.84
2022-08-25T15:44:41.174Z,45.79
2022-08-25T15:47:32.256Z,46.72
2022-08-25T15:50:12.067Z,47.32
2022-08-25T15:52:47.390Z,46.31
2022-08-25T15:55:17.328Z,47.15
2022-08-25T15:57:44.719Z,46.63
2022-08-25T16:00:13.528Z,46.81
2022-08-25T16:02:45.486Z,45.94
2022-08-25T16:05:16.542Z,45.82
2022-08-25T16:07:52.053Z,45.88
2022-08-25T16:10:22.203Z,46.57
2022-08-25T16:12:49.227Z,46.29
2022-08-25T16:15:17.290Z,46.20
2022-08-25T16:17:46.972Z,45.38
2022-08-25T16:20:17.234Z,45.44
2022-08-25T16:22:45.346Z,45.64
2022-08-25T16:25:15.538Z,46.03
2022-08-25T16:27:46.618Z,44.80
2022-08-25T16:30:17.439Z,44.96
2022-08-25T16:32:46.716Z,43.93
2022-08-25T16:35:14.119Z,45.65
2022-08-25T16:37:41.453Z,44.31
2022-08-25T16:40:13.505Z,46.70
2022-08-25T16:42:41.861Z,46.76
2022-08-25T16:45:09.330Z,47.47
2022-08-25T16:47:38.179Z,47.12
2022-08-25T16:50:11.227Z,47.19
2022-08-25T16:52:58.243Z,47.37
2022-08-25T16:55:39.063Z,46.69
2022-08-25T16:58:07.778Z,47.20
2022-08-25T17:00:41.729Z,47.17
2022-08-25T17:03:18.577Z,46.44
2022-08-25T17:05:46.590Z,47.48
2022-08-25T17:08:29.467Z,48.11
2022-08-25T17:11:16.273Z,46.92
2022-08-25T17:13:53.097Z,47.13
2022-08-25T17:16:26.299Z,47.53
2022-08-25T17:18:55.157Z,47.47
2022-08-25T17:21:24.334Z,47.38
2022-08-25T17:23:57.346Z,48.31
2022-08-25T17:26:30.015Z,48.63
2022-08-25T17:29:00.496Z,47.97
2022-08-25T17:31:30.652Z,47.99
2022-08-25T17:33:59.973Z,47.77
2022-08-25T17:36:27.576Z,48.18
2022-08-25T17:38:56.759Z,48.03
2022-08-25T17:41:25.055Z,47.02
2022-08-25T17:43:52.003Z,46.98
2022-08-25T17:46:19.014Z,47.69
2022-08-25T17:48:46.241Z,48.53
2022-08-25T17:51:15.842Z,48.94
2022-08-25T17:53:44.809Z,50.36
2022-08-25T17:56:18.546Z,50.95
2022-08-25T17:58:45.818Z,50.94
2022-08-25T18:01:23.072Z,50.95
2022-08-25T18:03:50.434Z,50.96
2022-08-25T18:06:18.865Z,51.66
2022-08-25T18:08:51.705Z,52.25
2022-08-25T18:11:24.609Z,52.00
2022-08-25T18:13:53.867Z,51.17
2022-08-25T18:16:23.162Z,52.08
2022-08-25T18:18:51.539Z,53.20
2022-08-25T18:21:22.442Z,53.61
2022-08-25T18:23:51.073Z,53.11
2022-08-25T18:26:21.826Z,54.43
2022-08-25T18:28:51.631Z,55.21
2022-08-25T18:31:19.944Z,55.36
2022-08-25T18:33:50.996Z,55.25
2022-08-25T18:36:20.967Z,55.61
2022-08-25T18:39:07.401Z,56.00
2022-08-25T18:41:39.489Z,55.98
2022-08-25T18:44:08.416Z,55.90
2022-08-25T18:46:39.346Z,55.88
2022-08-25T18:49:08.536Z,55.88
2022-08-25T18:51:36.111Z,56.39
2022-08-25T18:54:04.109Z,56.42
2022-08-25T18:56:31.173Z,56.57
2022-08-25T18:58:58.354Z,56.77
2022-08-25T19:01:25.654Z,57.47
2022-08-25T19:03:52.798Z,57.60
2022-08-25T19:06:20.824Z,56.96
2022-08-25T19:08:48.619Z,57.35
2022-08-25T19:11:17.265Z,57.39
2022-08-25T19:13:49.576Z,57.42
2022-08-25T19:16:30.276Z,57.95
2022-08-25T19:18:58.378Z,58.11
2022-08-25T19:21:25.552Z,58.30
2022-08-25T19:23:53.505Z,57.77
2022-08-25T19:26:21.389Z,57.39
2022-08-25T19:28:49.510Z,57.13
2022-08-25T19:31:22.857Z,57.31
2022-08-25T19:33:53.035Z,57.17
2022-08-25T19:36:28.008Z,56.82
2022-08-25T19:38:58.660Z,57.94
2022-08-25T19:41:27.908Z,57.65
2022-08-25T19:43:57.479Z,58.00
2022-08-25T19:46:35.437Z,58.05
2022-08-25T19:49:11.134Z,58.01
2022-08-25T19:51:46.838Z,58.70
2022-08-25T19:54:27.007Z,58.26
2022-08-25T19:56:55.617Z,59.18
2022-08-25T19:59:34.276Z,59.32
2022-08-25T20:02:20.288Z,59.67
2022-08-25T20:04:52.674Z,60.02
2022-08-25T20:07:23.781Z,59.98
2022-08-25T20:09:53.246Z,60.10
2022-08-25T20:12:23.488Z,59.92
2022-08-25T20:14:52.096Z,60.66
2022-08-25T20:17:24.295Z,60.71
2022-08-25T20:19:56.195Z,61.22
2022-08-25T20:22:27.146Z,61.83
2022-08-25T20:25:02.342Z,61.89
2022-08-25T20:27:41.289Z,61.91
2022-08-25T20:30:14.156Z,62.52
2022-08-25T20:32:45.891Z,62.58
2022-08-25T20:35:14.549Z,62.57
2022-08-25T20:37:44.543Z,61.76
2022-08-25T20:40:14.534Z,62.24
2022-08-25T20:42:43.488Z,62.34
2022-08-25T20:45:13.878Z,62.82
2022-08-25T20:47:41.067Z,62.64
2022-08-25T20:50:09.349Z,62.69
2022-08-25T20:52:42.363Z,61.98
2022-08-25T20:55:10.501Z,62.93
2022-08-25T20:57:39.539Z,63.41
2022-08-25T21:00:08.802Z,62.91
2022-08-25T21:02:37.021Z,62.10
2022-08-25T21:05:04.729Z,62.20
2022-08-25T21:07:31.814Z,62.08
2022-08-25T21:10:06.831Z,62.20
2022-08-25T21:12:38.947Z,62.30
2022-08-25T21:15:07.147Z,62.69
2022-08-25T21:17:36.043Z,62.50
2022-08-25T21:20:06.071Z,62.54
2022-08-25T21:22:35.495Z,62.21
2022-08-25T21:25:03.125Z,63.14
2022-08-25T21:27:30.286Z,62.97
2022-08-25T21:29:57.472Z,62.69
2022-08-25T21:32:24.685Z,63.02
2022-08-25T21:34:55.595Z,61.91
2022-08-25T21:37:24.315Z,62.88
2022-08-25T21:39:52.934Z,62.99
2022-08-25T21:42:23.890Z,62.67
2022-08-25T21:44:52.520Z,63.05
2022-08-25T21:47:21.542Z,63.57
2022-08-25T21:49:49.888Z,63.88
2022-08-25T21:52:17.923Z,64.09
2022-08-25T21:54:45.379Z,64.51
2022-08-25T21:57:12.815Z,65.51
2022-08-25T21:59:41.288Z,66.53
2022-08-25T22:02:13.324Z,66.82
2022-08-25T22:04:42.113Z,67.23
2022-08-25T22:07:10.856Z,66.09
2022-08-25T22:09:39.169Z,66.54
2022-08-25T22:12:06.755Z,67.05
2022-08-25T22:14:34.476Z,67.96
2022-08-25T22:17:01.892Z,67.62
2022-08-25T22:19:28.996Z,69.08
2022-08-25T22:21:57.120Z,70.55
2022-08-25T22:24:28.477Z,71.41
2022-08-25T22:26:56.795Z,70.79
2022-08-25T22:29:25.393Z,70.13
2022-08-25T22:32:00.681Z,69.82
2022-08-25T22:34:35.141Z,70.54
2022-08-25T22:37:07.261Z,70.94
2022-08-25T22:39:35.426Z,71.93
2022-08-25T22:42:03.727Z,71.75
2022-08-25T22:44:31.861Z,71.79
2022-08-25T22:46:58.815Z,70.94
2022-08-25T22:49:29.390Z,69.76
2022-08-25T22:51:57.609Z,70.01
2022-08-25T22:54:25.603Z,69.31
2022-08-25T22:56:53.237Z,69.02
2022-08-25T22:59:20.203Z,68.73
2022-08-25T23:01:49.957Z,69.44
2022-08-25T23:04:17.685Z,68.84
2022-08-25T23:06:46.469Z,69.13
2022-08-25T23:09:14.466Z,69.39
2022-08-25T23:11:43.192Z,69.85
2022-08-25T23:14:11.423Z,69.83
2022-08-25T23:16:41.697Z,69.61
2022-08-25T23:19:14.257Z,70.01
2022-08-25T23:22:01.902Z,69.41
2022-08-25T23:24:30.765Z,70.42
2022-08-25T23:27:00.794Z,71.00
2022-08-25T23:29:28.918Z,71.30
2022-08-25T23:31:57.683Z,71.70
2022-08-25T23:34:25.843Z,72.37
2022-08-25T23:36:53.553Z,71.98
2022-08-25T23:39:22.198Z,71.89
2022-08-25T23:41:50.415Z,72.50
2022-08-25T23:44:19.714Z,72.87
2022-08-25T23:46:48.600Z,73.84
2022-08-25T23:49:18.514Z,74.94
2022-08-25T23:51:48.803Z,75.52
2022-08-25T23:54:17.040Z,76.02
2022-08-25T23:56:51.814Z,76.52
2022-08-25T23:59:24.736Z,76.41
